Time;durP1;ratioP1;P1;durP2;ratioP2;P2;SDS_P1;SDS_P2;PMS_P1;PMS_P2;Temp;Humidity;BMP_temperature;BMP_pressure;BME280_temperature;BME280_humidity;BME280_pressure;Samples;Min_cycle;Max_cycle;Signal;HPM_P1;HPM_P2
2022/08/08 00:02:40;;;;;;;5.47;3.00;;;16.20;99.90;;;;;;5154640;27;20332;-69
2022/08/08 00:05:11;;;;;;;6.50;3.30;;;16.20;99.90;;;;;;5154467;27;20436;-69
2022/08/08 00:08:08;;;;;;;8.10;3.30;;;16.20;99.90;;;;;;5154653;27;20125;-68
2022/08/08 00:10:48;;;;;;;6.47;3.23;;;16.20;99.90;;;;;;5154598;27;20355;-68
2022/08/08 00:13:33;;;;;;;7.73;3.13;;;16.10;99.90;;;;;;5154785;27;20348;-69
2022/08/08 00:16:15;;;;;;;7.27;3.47;;;16.10;99.90;;;;;;5135839;27;20280;-68
2022/08/08 00:19:19;;;;;;;5.50;3.43;;;16.10;99.90;;;;;;5118984;27;20330;-68
2022/08/08 00:21:50;;;;;;;7.70;3.40;;;16.10;99.90;;;;;;5158708;27;20047;-68
2022/08/08 00:24:29;;;;;;;7.70;3.53;;;16.10;99.90;;;;;;5158736;27;20279;-68
2022/08/08 00:26:58;;;;;;;6.73;3.40;;;16.00;99.90;;;;;;5158495;27;20054;-68
2022/08/08 00:29:36;;;;;;;6.27;3.40;;;16.10;99.90;;;;;;5158636;27;20276;-68
2022/08/08 00:32:27;;;;;;;6.20;3.60;;;16.00;99.90;;;;;;5157935;27;20767;-68
2022/08/08 00:35:19;;;;;;;5.80;3.37;;;16.00;99.90;;;;;;5158412;27;20272;-69
2022/08/08 00:38:09;;;;;;;6.50;4.00;;;15.90;99.90;;;;;;5140126;27;20359;-68
2022/08/08 00:40:41;;;;;;;7.17;3.60;;;15.90;99.90;;;;;;5158420;27;20752;-69
2022/08/08 00:43:42;;;;;;;7.27;3.63;;;15.90;99.90;;;;;;5158152;27;20272;-69
2022/08/08 00:46:45;;;;;;;7.43;3.57;;;15.90;99.90;;;;;;5157787;27;20681;-69
2022/08/08 00:49:34;;;;;;;6.53;3.60;;;15.80;99.90;;;;;;5157953;27;20299;-69
2022/08/08 00:52:16;;;;;;;6.00;3.40;;;15.80;99.90;;;;;;5157941;27;20364;-69
2022/08/08 00:54:58;;;;;;;6.37;3.70;;;15.80;99.90;;;;;;5158249;27;20330;-68
2022/08/08 00:57:32;;;;;;;7.40;3.37;;;15.80;99.90;;;;;;5158253;27;20308;-69
2022/08/08 01:00:16;;;;;;;7.37;3.90;;;15.90;99.90;;;;;;5139733;27;20291;-69
2022/08/08 01:02:54;;;;;;;5.33;3.73;;;15.90;99.90;;;;;;5139439;27;20180;-69
2022/08/08 01:05:42;;;;;;;7.23;3.87;;;15.80;99.90;;;;;;5157787;27;20371;-69
2022/08/08 01:08:11;;;;;;;6.50;3.97;;;15.90;99.90;;;;;;5157657;27;20312;-69
2022/08/08 01:11:03;;;;;;;6.07;4.00;;;15.90;99.90;;;;;;5139602;27;20307;-69
2022/08/08 01:13:56;;;;;;;7.10;4.60;;;15.90;99.90;;;;;;5157312;27;20300;-69
2022/08/08 01:16:59;;;;;;;7.53;4.40;;;15.90;99.90;;;;;;5157979;27;20651;-69
2022/08/08 01:19:46;;;;;;;7.37;4.20;;;16.00;99.90;;;;;;5120856;27;20345;-69
2022/08/08 01:22:30;;;;;;;6.93;4.13;;;16.00;99.90;;;;;;5156187;27;20311;-69
2022/08/08 01:25:04;;;;;;;9.00;4.27;;;15.90;99.90;;;;;;5156428;27;20681;-69
2022/08/08 01:27:57;;;;;;;7.03;4.63;;;15.90;99.90;;;;;;5138360;27;20288;-69
2022/08/08 01:31:02;;;;;;;7.47;4.27;;;15.90;99.90;;;;;;5155690;27;20443;-69
2022/08/08 01:33:59;;;;;;;9.70;4.50;;;15.80;99.90;;;;;;5156523;27;20320;-69
2022/08/08 01:36:43;;;;;;;7.90;3.80;;;15.80;99.90;;;;;;5156389;27;20572;-69
2022/08/08 01:39:31;;;;;;;6.35;3.80;;;15.70;99.90;;;;;;5155903;27;20276;-69
2022/08/08 01:42:02;;;;;;;9.00;4.23;;;15.70;99.90;;;;;;5156309;27;20042;-69
2022/08/08 01:45:01;;;;;;;8.37;4.50;;;15.70;99.90;;;;;;5156127;27;20288;-69
2022/08/08 01:47:27;;;;;;;7.67;4.00;;;15.70;99.90;;;;;;5156085;27;20364;-69
2022/08/08 01:50:38;;;;;;;7.33;3.60;;;15.70;99.90;;;;;;5155963;27;20318;-69
2022/08/08 01:53:35;;;;;;;6.20;4.67;;;15.70;99.90;;;;;;5051284;28;20120;-69
2022/08/08 01:56:16;;;;;;;7.17;4.07;;;15.60;99.90;;;;;;5051600;28;20279;-69
2022/08/08 01:58:44;;;;;;;6.20;3.90;;;15.60;99.90;;;;;;5137887;27;20299;-68
2022/08/08 02:01:21;;;;;;;7.17;3.73;;;15.60;99.90;;;;;;5155464;27;20276;-69
2022/08/08 02:04:19;;;;;;;6.80;4.00;;;15.60;99.90;;;;;;5155924;27;20276;-69
2022/08/08 02:07:23;;;;;;;7.47;4.33;;;15.60;99.90;;;;;;5155685;27;20287;-69
2022/08/08 02:10:06;;;;;;;6.20;4.07;;;15.50;99.90;;;;;;5155820;27;20280;-68
2022/08/08 02:12:42;;;;;;;6.83;4.30;;;15.50;99.90;;;;;;5155803;27;20332;-69
2022/08/08 02:15:26;;;;;;;9.27;4.13;;;15.40;99.90;;;;;;5155440;27;20593;-69
2022/08/08 02:18:07;;;;;;;6.83;3.83;;;15.40;99.90;;;;;;5116305;27;1102830;-69
2022/08/08 02:24:08;;;;;;;6.93;4.33;;;15.30;99.90;;;;;;5156350;27;20318;-69
2022/08/08 02:27:06;;;;;;;6.40;4.10;;;15.30;99.90;;;;;;5153337;27;20288;-69
2022/08/08 02:29:43;;;;;;;6.07;4.17;;;15.30;99.90;;;;;;5156257;27;20383;-69
2022/08/08 02:32:26;;;;;;;6.47;4.03;;;15.30;99.90;;;;;;5155925;27;20292;-69
2022/08/08 02:35:00;;;;;;;7.20;3.90;;;15.30;99.90;;;;;;5156084;27;20748;-69
2022/08/08 02:37:38;;;;;;;7.85;4.38;;;15.20;99.90;;;;;;5155853;27;20298;-69
2022/08/08 02:40:36;;;;;;;7.47;4.07;;;15.20;99.90;;;;;;5137829;27;20049;-69
2022/08/08 02:43:40;;;;;;;7.63;4.20;;;15.20;99.90;;;;;;5155353;27;20351;-69
2022/08/08 02:46:32;;;;;;;7.63;4.40;;;15.20;99.90;;;;;;5155924;27;20283;-69
2022/08/08 02:49:07;;;;;;;7.43;4.30;;;15.20;99.90;;;;;;5155974;27;20279;-68
2022/08/08 02:52:18;;;;;;;6.60;4.50;;;15.10;99.90;;;;;;5155638;27;20276;-68
2022/08/08 02:54:52;;;;;;;5.67;4.33;;;15.10;99.90;;;;;;5115743;27;20451;-68
2022/08/08 02:57:55;;;;;;;5.10;3.92;;;15.00;99.90;;;;;;5155420;27;20330;-69
2022/08/08 03:00:21;;;;;;;5.63;3.93;;;15.10;99.90;;;;;;5155347;27;20050;-69
2022/08/08 03:03:11;;;;;;;6.63;4.10;;;15.10;99.90;;;;;;5137534;27;20751;-69
2022/08/08 03:06:03;;;;;;;5.63;3.90;;;15.10;99.90;;;;;;5136973;27;20292;-69
2022/08/08 03:09:14;;;;;;;7.53;4.47;;;15.10;99.90;;;;;;5155216;27;20279;-69
2022/08/08 03:12:30;;;;;;;5.80;3.93;;;15.20;99.90;;;;;;5155290;27;20776;-69
2022/08/08 03:15:14;;;;;;;6.03;3.72;;;15.20;99.90;;;;;;5051095;28;20284;-69
2022/08/08 03:17:43;;;;;;;5.73;4.17;;;15.20;99.90;;;;;;5146260;27;20046;-69
2022/08/08 03:20:12;;;;;;;6.70;4.40;;;15.20;99.90;;;;;;5155196;27;20295;-69
2022/08/08 03:22:47;;;;;;;7.53;4.50;;;15.20;99.90;;;;;;5155072;27;20284;-69
2022/08/08 03:25:14;;;;;;;6.68;4.20;;;15.20;99.90;;;;;;5155113;27;20280;-69
2022/08/08 03:27:47;;;;;;;7.17;4.60;;;15.20;99.90;;;;;;5136904;27;20508;-69
2022/08/08 03:30:14;;;;;;;8.87;5.47;;;15.30;99.90;;;;;;5155236;27;20362;-69
2022/08/08 03:35:26;;;;;;;8.57;5.10;;;15.40;99.90;;;;;;5139311;27;20362;-69
2022/08/08 03:37:52;;;;;;;6.83;4.90;;;15.40;99.90;;;;;;5155194;27;20311;-69
2022/08/08 03:40:21;;;;;;;10.10;4.80;;;15.40;99.90;;;;;;5154727;27;20280;-69
2022/08/08 03:42:48;;;;;;;9.13;4.77;;;15.50;99.90;;;;;;5155038;27;20268;-69
2022/08/08 03:45:15;;;;;;;10.20;4.63;;;15.50;99.90;;;;;;5154882;27;20280;-69
2022/08/08 03:47:40;;;;;;;8.00;4.93;;;15.50;99.90;;;;;;5154719;27;20276;-69
2022/08/08 03:50:17;;;;;;;10.00;5.03;;;15.60;99.90;;;;;;5154961;27;20796;-69
2022/08/08 03:52:43;;;;;;;9.13;4.97;;;15.60;99.90;;;;;;5154855;27;20062;-69
2022/08/08 03:55:14;;;;;;;9.57;5.13;;;15.60;99.90;;;;;;5154718;27;20344;-69
2022/08/08 03:57:48;;;;;;;10.20;5.47;;;15.60;99.90;;;;;;5154490;27;20348;-69
2022/08/08 04:00:15;;;;;;;12.43;5.33;;;15.60;99.90;;;;;;5154750;27;20773;-69
2022/08/08 04:02:42;;;;;;;7.63;4.90;;;15.60;99.90;;;;;;5154437;27;20631;-69
2022/08/08 04:05:09;;;;;;;9.03;5.27;;;15.60;99.90;;;;;;5154624;27;20276;-69
2022/08/08 04:07:39;;;;;;;7.80;4.87;;;15.60;99.90;;;;;;5154376;27;20284;-69
2022/08/08 04:10:07;;;;;;;7.70;5.00;;;15.70;99.90;;;;;;5154681;27;20271;-68
2022/08/08 04:12:33;;;;;;;6.60;4.63;;;15.70;99.90;;;;;;5154304;27;20337;-68
2022/08/08 04:15:00;;;;;;;8.80;6.00;;;15.70;99.90;;;;;;5154746;27;20313;-68
2022/08/08 04:17:25;;;;;;;6.70;4.70;;;15.70;99.90;;;;;;5154239;27;20368;-69
2022/08/08 04:19:51;;;;;;;6.83;4.73;;;15.70;99.90;;;;;;5154659;27;20375;-68
2022/08/08 04:22:17;;;;;;;10.47;4.87;;;15.70;99.90;;;;;;5154115;27;20423;-68
2022/08/08 04:24:42;;;;;;;8.87;5.20;;;15.70;99.90;;;;;;5153875;27;20050;-68
2022/08/08 04:27:08;;;;;;;7.60;4.77;;;15.70;99.90;;;;;;5154526;27;20082;-68
2022/08/08 04:29:34;;;;;;;7.97;5.07;;;15.70;99.90;;;;;;5154116;27;20043;-68
2022/08/08 04:31:59;;;;;;;9.97;5.57;;;15.70;99.90;;;;;;5135854;27;20035;-68
2022/08/08 04:34:25;;;;;;;7.90;5.27;;;15.70;99.90;;;;;;5154108;27;20506;-69
2022/08/08 04:36:51;;;;;;;8.87;6.03;;;15.70;99.90;;;;;;5154706;27;20049;-68
2022/08/08 04:39:17;;;;;;;8.57;4.90;;;15.70;99.90;;;;;;5154284;27;20643;-68
2022/08/08 04:41:42;;;;;;;8.97;5.50;;;15.70;99.90;;;;;;5153894;27;20431;-68
2022/08/08 04:44:08;;;;;;;7.63;5.20;;;15.70;99.90;;;;;;5154184;27;20087;-68
2022/08/08 04:46:34;;;;;;;7.90;5.10;;;15.80;99.90;;;;;;5135660;27;20043;-68
2022/08/08 04:48:59;;;;;;;9.77;5.60;;;15.70;99.90;;;;;;5135990;27;20042;-68
2022/08/08 04:51:25;;;;;;;9.70;5.53;;;15.80;99.90;;;;;;5153910;27;20046;-69
2022/08/08 04:53:51;;;;;;;10.40;6.03;;;15.80;99.90;;;;;;5154136;27;20484;-68
2022/08/08 04:56:18;;;;;;;8.30;5.33;;;15.80;99.90;;;;;;5154433;27;20046;-68
2022/08/08 04:58:43;;;;;;;9.00;5.73;;;15.80;99.90;;;;;;5153838;27;20398;-68
2022/08/08 05:01:09;;;;;;;9.03;5.20;;;15.90;99.90;;;;;;5154245;27;20272;-68
2022/08/08 05:03:35;;;;;;;8.73;5.10;;;15.90;99.90;;;;;;5153808;27;20062;-68
2022/08/08 05:06:00;;;;;;;9.70;5.70;;;15.90;99.90;;;;;;5155455;27;20421;-68
2022/08/08 05:08:26;;;;;;;7.60;4.70;;;15.90;99.90;;;;;;5157870;27;20043;-69
2022/08/08 05:10:53;;;;;;;12.07;5.67;;;15.90;99.90;;;;;;5158169;27;20085;-68
2022/08/08 05:13:20;;;;;;;9.27;5.60;;;15.90;99.90;;;;;;5157720;27;20296;-68
2022/08/08 05:15:45;;;;;;;8.33;5.30;;;16.00;99.90;;;;;;5157500;27;20782;-68
2022/08/08 05:18:11;;;;;;;11.47;6.03;;;16.00;99.90;;;;;;5157423;27;20284;-68
2022/08/08 05:20:37;;;;;;;9.47;5.83;;;16.00;99.90;;;;;;5157069;27;20051;-68
2022/08/08 05:23:03;;;;;;;9.97;5.13;;;16.00;99.90;;;;;;5157611;27;20042;-68
2022/08/08 05:25:30;;;;;;;10.30;5.47;;;16.00;99.90;;;;;;5157239;27;20302;-70
2022/08/08 05:27:55;;;;;;;12.00;5.73;;;16.10;99.90;;;;;;5157514;27;20058;-68
2022/08/08 05:30:21;;;;;;;9.77;6.13;;;16.10;99.90;;;;;;5157462;27;20280;-68
2022/08/08 05:32:47;;;;;;;8.00;5.20;;;16.20;99.90;;;;;;5156787;27;20372;-68
2022/08/08 05:35:13;;;;;;;7.90;5.33;;;16.30;99.90;;;;;;5157331;27;20042;-68
2022/08/08 05:37:47;;;;;;;11.10;5.23;;;16.40;99.90;;;;;;5157147;27;20038;-68
2022/08/08 05:40:14;;;;;;;10.60;5.50;;;16.40;99.90;;;;;;5157590;27;20313;-68
2022/08/08 05:42:43;;;;;;;8.97;5.90;;;16.50;99.90;;;;;;5138872;27;20392;-68
2022/08/08 05:45:11;;;;;;;8.77;5.30;;;16.60;99.90;;;;;;5157500;27;20053;-68
2022/08/08 05:47:38;;;;;;;11.37;5.43;;;16.70;99.90;;;;;;5156925;27;20367;-69
2022/08/08 05:50:06;;;;;;;8.03;4.77;;;16.70;99.90;;;;;;5157085;27;20729;-68
2022/08/08 05:52:34;;;;;;;11.53;5.50;;;16.80;99.90;;;;;;5156922;27;20056;-68
2022/08/08 05:55:04;;;;;;;10.37;5.03;;;16.90;99.90;;;;;;5157271;27;20348;-69
2022/08/08 05:57:34;;;;;;;8.57;5.30;;;17.50;99.90;;;;;;5156909;27;20133;-69
2022/08/08 06:00:04;;;;;;;10.60;4.30;;;18.90;99.90;;;;;;5156845;27;20045;-69
2022/08/08 06:05:18;;;;;;;9.47;4.40;;;21.60;99.90;;;;;;5156909;27;20051;-69
2022/08/08 06:07:46;;;;;;;10.27;4.60;;;22.80;99.90;;;;;;5156498;27;20439;-69
2022/08/08 06:10:12;;;;;;;9.73;4.00;;;23.70;99.90;;;;;;5156965;27;20148;-69
2022/08/08 06:12:39;;;;;;;8.37;4.53;;;24.70;99.90;;;;;;5138138;27;20129;-69
2022/08/08 06:15:07;;;;;;;10.20;3.77;;;25.50;99.90;;;;;;5156684;27;20075;-69
2022/08/08 06:17:35;;;;;;;9.80;3.70;;;26.20;94.60;;;;;;5155401;27;20098;-69
2022/08/08 06:20:06;;;;;;;8.80;3.73;;;;;;;;;;5156756;27;20499;-69
2022/08/08 06:22:32;;;;;;;7.70;3.40;;;27.50;64.30;;;;;;5156427;27;20046;-69
2022/08/08 06:24:58;;;;;;;6.97;2.83;;;27.80;75.70;;;;;;5156157;27;20043;-69
2022/08/08 06:27:33;;;;;;;6.67;2.93;;;;;;;;;;5156394;27;20046;-69
2022/08/08 06:30:06;;;;;;;6.47;2.73;;;29.30;56.40;;;;;;5156094;27;20043;-69
2022/08/08 06:32:32;;;;;;;6.70;2.73;;;;;;;;;;5156056;27;20050;-69
2022/08/08 06:35:08;;;;;;;6.77;2.93;;;30.10;59.00;;;;;;5155651;27;20455;-69
2022/08/08 06:37:37;;;;;;;7.00;2.80;;;30.60;54.00;;;;;;5156276;27;20050;-69
2022/08/08 06:40:06;;;;;;;6.57;2.70;;;30.90;54.20;;;;;;5156377;27;20053;-70
2022/08/08 06:42:37;;;;;;;6.10;2.60;;;30.90;53.30;;;;;;5137996;27;20047;-69
2022/08/08 06:45:05;;;;;;;6.05;2.45;;;31.40;48.30;;;;;;5156304;27;20647;-69
2022/08/08 06:47:31;;;;;;;6.07;2.30;;;31.60;51.50;;;;;;5137519;27;20046;-69
2022/08/08 06:49:57;;;;;;;5.20;2.30;;;32.30;49.80;;;;;;5155616;27;20095;-69
2022/08/08 06:52:23;;;;;;;6.05;2.28;;;31.70;48.70;;;;;;5155740;27;20035;-69
2022/08/08 06:54:49;;;;;;;6.43;2.60;;;32.00;45.00;;;;;;5137399;27;20049;-70
2022/08/08 06:57:14;;;;;;;6.20;2.50;;;32.20;47.90;;;;;;5155870;27;20095;-70
2022/08/08 06:59:40;;;;;;;5.65;2.20;;;32.50;47.20;;;;;;5155390;27;20043;-71
2022/08/08 07:02:07;;;;;;;4.15;2.15;;;32.90;46.80;;;;;;5155451;27;20099;-69
2022/08/08 07:04:56;;;;;;;4.85;1.83;;;33.20;44.80;;;;;;5146326;27;20044;-70
2022/08/08 07:07:34;;;;;;;5.05;1.83;;;32.70;43.40;;;;;;5134725;27;20039;-70
2022/08/08 07:10:06;;;;;;;5.50;1.73;;;33.00;43.60;;;;;;5134475;27;20050;-70
2022/08/08 07:12:40;;;;;;;5.50;2.15;;;32.90;44.00;;;;;;5134746;27;20043;-70
2022/08/08 07:15:11;;;;;;;4.30;1.92;;;33.40;43.30;;;;;;5134335;27;20095;-70
2022/08/08 07:17:45;;;;;;;5.25;2.10;;;33.60;43.40;;;;;;5116618;27;20379;-70
2022/08/08 07:20:17;;;;;;;4.53;2.40;;;33.60;42.10;;;;;;5135148;27;20071;-70
2022/08/08 07:23:29;;;;;;;6.03;2.28;;;33.50;42.20;;;;;;5134557;27;20111;-71
2022/08/08 07:25:59;;;;;;;4.45;2.03;;;33.60;42.20;;;;;;5134232;27;20390;-70
2022/08/08 07:28:26;;;;;;;5.72;2.20;;;33.70;42.40;;;;;;5134117;27;20054;-70
2022/08/08 07:30:52;;;;;;;7.55;2.30;;;33.30;42.70;;;;;;5134092;27;20054;-70
2022/08/08 07:33:21;;;;;;;5.93;1.80;;;32.70;43.00;;;;;;5134216;27;20039;-70
2022/08/08 07:35:48;;;;;;;3.85;1.60;;;;;;;;;;5133677;27;20478;-70
2022/08/08 07:38:17;;;;;;;6.63;2.17;;;32.30;43.90;;;;;;5134496;27;20122;-70
2022/08/08 07:40:44;;;;;;;6.32;1.92;;;31.50;44.50;;;;;;5134359;27;20047;-70
2022/08/08 07:43:11;;;;;;;5.05;1.90;;;30.70;45.20;;;;;;5134039;27;20043;-70
2022/08/08 07:45:38;;;;;;;4.38;1.85;;;30.00;46.10;;;;;;5134241;27;20051;-70
2022/08/08 07:48:04;;;;;;;6.47;2.40;;;29.20;47.50;;;;;;5133854;27;20042;-70
2022/08/08 07:50:32;;;;;;;5.65;1.60;;;28.50;49.20;;;;;;5134148;27;20043;-70
2022/08/08 07:53:05;;;;;;;6.88;2.08;;;;;;;;;;5133593;27;20463;-70
2022/08/08 07:55:31;;;;;;;4.20;1.95;;;27.70;51.20;;;;;;5115982;28;20053;-70
2022/08/08 07:58:20;;;;;;;4.90;1.73;;;27.40;51.30;;;;;;5133707;27;20047;-70
2022/08/08 08:00:50;;;;;;;4.57;1.60;;;26.90;52.60;;;;;;5133754;27;20368;-69
2022/08/08 08:03:39;;;;;;;5.20;1.75;;;26.40;53.90;;;;;;5133961;27;20510;-70
2022/08/08 08:06:05;;;;;;;4.57;1.45;;;25.80;55.30;;;;;;5133693;27;20044;-70
2022/08/08 08:08:38;;;;;;;3.75;1.15;;;25.50;56.30;;;;;;5133814;28;20466;-70
2022/08/08 08:11:13;;;;;;;5.13;1.52;;;25.30;58.00;;;;;;5133697;28;20407;-70
2022/08/08 08:13:43;;;;;;;4.47;1.40;;;25.10;58.60;;;;;;5133868;28;20043;-69
2022/08/08 08:16:14;;;;;;;7.18;1.73;;;25.00;59.60;;;;;;5133667;28;20096;-73
2022/08/08 08:18:44;;;;;;;4.95;1.55;;;24.90;60.10;;;;;;5133664;28;20063;-72
2022/08/08 08:21:11;;;;;;;3.87;1.77;;;24.80;61.00;;;;;;5133708;28;20525;-73
2022/08/08 08:23:37;;;;;;;4.67;1.33;;;24.60;61.90;;;;;;5133865;28;20043;-73
2022/08/08 08:26:03;;;;;;;2.90;1.10;;;24.40;64.20;;;;;;5133550;28;20035;-71
2022/08/08 08:28:30;;;;;;;7.10;1.97;;;24.20;65.70;;;;;;5133843;28;20039;-72
2022/08/08 08:30:57;;;;;;;5.07;1.47;;;24.10;67.20;;;;;;5133335;28;20119;-71
2022/08/08 08:33:23;;;;;;;3.83;1.27;;;24.00;67.60;;;;;;5133631;28;20109;-67
2022/08/08 08:35:49;;;;;;;3.53;1.20;;;23.80;68.60;;;;;;5133330;28;20491;-68
2022/08/08 08:38:15;;;;;;;4.97;1.50;;;23.80;69.10;;;;;;5133422;28;20039;-68
2022/08/08 08:40:41;;;;;;;5.20;1.90;;;23.70;69.60;;;;;;5134579;27;20055;-68
2022/08/08 08:43:08;;;;;;;5.50;1.93;;;23.60;71.10;;;;;;5137500;27;20099;-69
2022/08/08 08:45:36;;;;;;;5.43;1.60;;;23.50;72.70;;;;;;5137696;27;20129;-68
2022/08/08 08:48:02;;;;;;;7.10;1.77;;;23.40;74.40;;;;;;5119306;27;20047;-67
2022/08/08 08:50:30;;;;;;;6.00;2.17;;;23.30;75.00;;;;;;5137119;27;20495;-67
2022/08/08 08:52:58;;;;;;;3.83;1.20;;;23.30;77.10;;;;;;5118829;27;20043;-68
2022/08/08 08:55:25;;;;;;;7.03;1.60;;;23.10;78.50;;;;;;5137457;27;20058;-70
2022/08/08 08:57:54;;;;;;;4.53;1.30;;;23.10;79.50;;;;;;5137553;27;20073;-70
2022/08/08 09:00:20;;;;;;;4.70;1.57;;;23.10;80.90;;;;;;5137126;27;20047;-70
2022/08/08 09:02:49;;;;;;;6.83;1.23;;;23.10;81.00;;;;;;5137294;27;20138;-76
2022/08/08 09:05:15;;;;;;;6.17;1.40;;;23.10;82.20;;;;;;5118350;27;20440;-75
2022/08/08 09:07:43;;;;;;;6.43;1.50;;;23.10;83.90;;;;;;5137185;27;20129;-76
2022/08/08 09:10:13;;;;;;;3.80;1.60;;;23.10;83.50;;;;;;5123969;27;20427;-74
2022/08/08 09:12:42;;;;;;;4.37;1.43;;;23.20;83.50;;;;;;5147061;27;20058;-78
2022/08/08 09:15:08;;;;;;;5.73;1.83;;;23.20;84.00;;;;;;5157495;27;20060;-76
2022/08/08 09:17:34;;;;;;;5.43;1.20;;;23.20;83.40;;;;;;5158076;27;20043;-76
2022/08/08 09:20:01;;;;;;;3.03;1.30;;;23.10;83.50;;;;;;5157592;27;20091;-74
2022/08/08 09:22:27;;;;;;;4.20;1.20;;;23.10;83.10;;;;;;5157977;27;20035;-74
2022/08/08 09:24:54;;;;;;;4.57;1.47;;;23.10;83.90;;;;;;5155965;27;20046;-75
2022/08/08 09:27:20;;;;;;;4.93;1.60;;;23.00;83.20;;;;;;5147034;27;20040;-75
2022/08/08 09:30:00;;;;;;;5.50;1.53;;;22.90;83.70;;;;;;5139485;27;20066;-76
2022/08/08 09:32:48;;;;;;;5.30;1.70;;;22.80;85.00;;;;;;5136449;27;20128;-72
2022/08/08 09:35:19;;;;;;;5.93;1.93;;;22.80;87.70;;;;;;5136351;27;20039;-72
2022/08/08 09:37:52;;;;;;;4.83;1.83;;;22.80;87.90;;;;;;5136852;27;20180;-74
2022/08/08 09:40:23;;;;;;;4.33;1.30;;;22.80;88.30;;;;;;5156968;27;20053;-77
2022/08/08 09:43:09;;;;;;;4.13;1.40;;;22.80;88.30;;;;;;5157236;27;20042;-75
2022/08/08 09:45:47;;;;;;;4.80;1.60;;;22.90;90.10;;;;;;5138705;27;20090;-71
2022/08/08 09:48:16;;;;;;;5.80;1.60;;;23.00;89.50;;;;;;5156575;27;20417;-72
2022/08/08 09:50:44;;;;;;;4.17;1.60;;;23.00;88.40;;;;;;5156346;27;20410;-72
2022/08/08 09:53:12;;;;;;;4.07;1.63;;;22.90;88.50;;;;;;5155826;27;20049;-72
2022/08/08 09:55:39;;;;;;;5.50;1.40;;;22.90;89.30;;;;;;5157138;27;20054;-71
2022/08/08 09:58:15;;;;;;;5.63;1.47;;;22.80;89.90;;;;;;5156883;27;20048;-72
2022/08/08 10:00:43;;;;;;;6.97;1.80;;;22.80;90.40;;;;;;5157137;27;20089;-72
2022/08/08 10:03:16;;;;;;;6.00;1.67;;;22.70;90.50;;;;;;5156650;27;20038;-72
2022/08/08 10:05:42;;;;;;;5.27;1.63;;;22.70;91.40;;;;;;5157065;27;20434;-72
2022/08/08 10:08:08;;;;;;;4.33;1.40;;;22.60;91.70;;;;;;5156499;27;20046;-72
2022/08/08 10:10:41;;;;;;;6.40;1.70;;;22.50;92.30;;;;;;5156682;27;20038;-72
2022/08/08 10:13:27;;;;;;;4.70;1.97;;;22.40;93.80;;;;;;5156294;27;20048;-72
2022/08/08 10:15:56;;;;;;;5.67;1.80;;;22.40;94.60;;;;;;5156773;27;20111;-72
2022/08/08 10:18:33;;;;;;;5.00;1.77;;;22.40;95.10;;;;;;5155970;27;20137;-72
2022/08/08 10:21:06;;;;;;;5.17;1.73;;;22.30;96.70;;;;;;5156568;27;20046;-72
2022/08/08 10:23:38;;;;;;;5.67;1.83;;;22.30;96.60;;;;;;5138048;27;20050;-72
2022/08/08 10:26:04;;;;;;;5.87;1.60;;;22.20;97.00;;;;;;5156456;27;20061;-72
2022/08/08 10:28:32;;;;;;;5.60;1.80;;;22.20;96.60;;;;;;5137838;27;20482;-72
2022/08/08 10:32:30;;;;;;;5.97;1.90;;;22.20;97.40;;;;;;5156420;27;20094;-72
2022/08/08 10:33:51;;;;;;;5.77;2.20;;;22.10;98.20;;;;;;5156066;27;20046;-72
2022/08/08 10:36:22;;;;;;;9.00;2.27;;;22.10;98.70;;;;;;5137952;27;20085;-72
2022/08/08 10:38:50;;;;;;;5.50;2.10;;;22.10;98.90;;;;;;5156274;27;20042;-73
2022/08/08 10:41:16;;;;;;;6.67;2.10;;;21.90;99.00;;;;;;5155825;27;20039;-73
2022/08/08 10:43:42;;;;;;;6.83;2.63;;;22.00;99.60;;;;;;5156216;27;20049;-72
2022/08/08 10:46:24;;;;;;;7.07;2.20;;;22.00;99.90;;;;;;5155947;27;20050;-72
2022/08/08 10:48:52;;;;;;;5.83;2.37;;;22.00;99.90;;;;;;5156119;27;20050;-71
2022/08/08 10:51:18;;;;;;;8.00;2.17;;;22.00;99.90;;;;;;5155620;27;20038;-70
2022/08/08 10:53:47;;;;;;;9.63;2.60;;;22.00;99.90;;;;;;5155722;27;20061;-71
2022/08/08 10:56:12;;;;;;;5.53;2.43;;;22.00;99.90;;;;;;5155749;27;20385;-69
2022/08/08 10:58:38;;;;;;;8.13;2.27;;;22.10;99.90;;;;;;5155735;27;20058;-71
2022/08/08 11:01:08;;;;;;;7.13;2.00;;;22.10;99.90;;;;;;5155728;27;20042;-71
2022/08/08 11:03:44;;;;;;;6.23;2.37;;;22.20;99.90;;;;;;5154722;27;20474;-73
2022/08/08 11:06:11;;;;;;;6.47;2.07;;;22.30;99.90;;;;;;5155809;27;20046;-70
2022/08/08 11:08:38;;;;;;;5.70;2.13;;;22.30;99.90;;;;;;5155247;27;20047;-70
2022/08/08 11:11:09;;;;;;;8.03;2.03;;;22.40;99.90;;;;;;5155619;27;20095;-70
2022/08/08 11:13:40;;;;;;;5.57;2.03;;;22.40;99.80;;;;;;5155129;27;20045;-70
2022/08/08 11:16:22;;;;;;;6.50;2.10;;;22.60;99.10;;;;;;5155405;27;20538;-70
2022/08/08 11:18:50;;;;;;;7.27;2.17;;;22.80;98.60;;;;;;5155580;27;20128;-70
2022/08/08 11:21:17;;;;;;;6.43;2.47;;;22.90;97.80;;;;;;5155177;27;20050;-71
2022/08/08 11:23:45;;;;;;;6.40;2.20;;;23.10;97.00;;;;;;5155284;27;20078;-71
2022/08/08 11:26:16;;;;;;;7.00;2.17;;;23.10;96.50;;;;;;5155241;27;20049;-70
2022/08/08 11:28:44;;;;;;;6.23;1.90;;;23.20;96.30;;;;;;5155240;27;20046;-78
2022/08/08 11:31:14;;;;;;;5.70;2.30;;;23.30;95.90;;;;;;5155129;27;20489;-77
2022/08/08 11:33:47;;;;;;;4.93;2.03;;;23.30;94.70;;;;;;5136438;27;20035;-80
2022/08/08 11:36:14;;;;;;;5.90;2.00;;;23.30;95.40;;;;;;5155265;27;20080;-71
2022/08/08 11:38:41;;;;;;;5.63;2.20;;;23.30;95.50;;;;;;5154755;27;20099;-72
2022/08/08 11:41:08;;;;;;;4.37;1.87;;;23.40;95.10;;;;;;5155034;27;20103;-73
2022/08/08 11:43:36;;;;;;;6.27;2.60;;;23.40;94.70;;;;;;5154687;27;20050;-81
2022/08/08 11:46:03;;;;;;;5.93;2.03;;;23.60;94.80;;;;;;5155070;27;20054;-80
2022/08/08 11:48:30;;;;;;;6.63;1.80;;;23.60;94.20;;;;;;5155447;27;20069;-80
2022/08/08 11:50:57;;;;;;;4.87;2.00;;;23.70;93.70;;;;;;5156764;27;20111;-74
2022/08/08 11:53:23;;;;;;;7.80;2.00;;;23.70;93.70;;;;;;5154451;27;20058;-73
2022/08/08 11:55:50;;;;;;;4.60;1.80;;;23.60;93.10;;;;;;5154718;27;20053;-74
2022/08/08 11:58:16;;;;;;;5.70;2.23;;;23.60;92.70;;;;;;5154653;27;20142;-72
2022/08/08 12:00:55;;;;;;;5.83;1.90;;;23.50;92.90;;;;;;5154438;27;20046;-71
2022/08/08 12:03:23;;;;;;;6.70;1.67;;;23.40;93.50;;;;;;5154650;27;20130;-72
2022/08/08 12:05:50;;;;;;;5.00;1.77;;;23.30;93.40;;;;;;5154369;27;20490;-72
2022/08/08 12:08:28;;;;;;;5.67;2.00;;;23.30;93.70;;;;;;5154835;27;20490;-72
2022/08/08 12:11:02;;;;;;;5.23;1.90;;;23.20;93.70;;;;;;5154795;27;20053;-72
2022/08/08 12:13:29;;;;;;;5.68;1.92;;;23.20;93.30;;;;;;5154300;27;20043;-72
2022/08/08 12:16:09;;;;;;;5.70;1.77;;;23.10;93.20;;;;;;5157575;27;20099;-72
2022/08/08 12:18:53;;;;;;;6.63;1.60;;;23.10;93.40;;;;;;5158406;27;20069;-72
2022/08/08 12:21:25;;;;;;;3.97;1.70;;;23.00;94.50;;;;;;5158961;27;20099;-72
2022/08/08 12:24:10;;;;;;;4.87;1.63;;;23.00;94.30;;;;;;5158948;27;20172;-68
2022/08/08 12:26:42;;;;;;;9.07;2.30;;;23.10;94.60;;;;;;5158499;27;20054;-70
2022/08/08 12:29:26;;;;;;;6.47;1.80;;;23.10;95.10;;;;;;5158777;27;20043;-82
2022/08/08 12:32:05;;;;;;;5.53;2.03;;;23.20;95.00;;;;;;5158890;27;20387;-71
2022/08/08 12:34:45;;;;;;;6.30;2.20;;;23.10;94.20;;;;;;5158403;27;20054;-79
2022/08/08 12:37:21;;;;;;;4.70;2.27;;;23.10;94.80;;;;;;5158799;27;20130;-80
2022/08/08 12:39:47;;;;;;;4.83;1.70;;;23.00;95.10;;;;;;5151561;27;20045;-73
2022/08/08 12:42:13;;;;;;;5.53;1.73;;;23.00;95.10;;;;;;5145582;27;20417;-79
2022/08/08 12:44:41;;;;;;;6.27;2.00;;;23.00;95.50;;;;;;5146429;27;20047;-78
2022/08/08 12:47:08;;;;;;;5.03;1.87;;;23.00;95.30;;;;;;5147568;27;20065;-81
2022/08/08 12:49:36;;;;;;;5.10;1.70;;;23.10;95.60;;;;;;5157251;27;20442;-78
2022/08/08 12:52:03;;;;;;;5.10;1.70;;;23.20;94.40;;;;;;5158440;27;20055;-73
2022/08/08 12:54:34;;;;;;;3.67;1.73;;;23.20;94.20;;;;;;5158004;27;20061;-74
2022/08/08 12:57:12;;;;;;;4.70;1.60;;;23.30;94.10;;;;;;5158334;27;20133;-73
2022/08/08 12:59:50;;;;;;;4.03;1.50;;;23.30;93.10;;;;;;5158000;27;20086;-73
2022/08/08 13:02:32;;;;;;;3.93;1.47;;;23.20;92.10;;;;;;5158067;27;20129;-69
2022/08/08 13:04:59;;;;;;;4.07;1.80;;;23.10;92.30;;;;;;5158067;27;20042;-70
2022/08/08 13:07:39;;;;;;;3.43;1.70;;;23.00;92.40;;;;;;5157968;27;20070;-71
2022/08/08 13:10:15;;;;;;;7.70;2.10;;;22.90;92.80;;;;;;5157950;27;20516;-71
2022/08/08 13:12:47;;;;;;;3.80;1.63;;;22.80;92.90;;;;;;5157961;27;20057;-71
2022/08/08 13:15:17;;;;;;;3.80;1.60;;;22.80;92.80;;;;;;5158050;27;20046;-71
2022/08/08 13:17:43;;;;;;;3.47;1.70;;;22.80;93.20;;;;;;5138770;27;20046;-71
2022/08/08 13:20:17;;;;;;;4.53;2.10;;;22.80;93.10;;;;;;5156714;27;20402;-71
2022/08/08 13:22:43;;;;;;;6.30;1.70;;;22.80;93.00;;;;;;5140559;27;20085;-71
2022/08/08 13:25:15;;;;;;;6.53;1.70;;;22.70;93.00;;;;;;5146750;27;20043;-70
2022/08/08 13:27:41;;;;;;;2.97;1.43;;;22.70;93.40;;;;;;5149404;27;20061;-71
2022/08/08 13:30:08;;;;;;;7.17;2.43;;;22.80;93.50;;;;;;5149622;27;20046;-72